createdAt,value
2019-01-30T00:00:06.514Z,929.39
2019-01-30T00:00:19.480Z,929.4
2019-01-30T00:00:32.500Z,929.41
2019-01-30T00:00:45.432Z,929.43
2019-01-30T00:00:58.460Z,929.4
2019-01-30T00:01:11.399Z,929.42
2019-01-30T00:01:24.321Z,929.4
2019-01-30T00:01:37.312Z,929.42
2019-01-30T00:01:50.270Z,929.4
2019-01-30T00:02:03.229Z,929.4
2019-01-30T00:02:16.206Z,929.4
2019-01-30T00:02:29.162Z,929.42
2019-01-30T00:02:42.151Z,929.44
2019-01-30T00:02:55.111Z,929.41
2019-01-30T00:03:08.080Z,929.42
2019-01-30T00:03:21.024Z,929.44
2019-01-30T00:03:33.992Z,929.41
2019-01-30T00:03:46.969Z,929.43
2019-01-30T00:03:59.995Z,929.38
2019-01-30T00:04:12.962Z,929.41
2019-01-30T00:04:25.983Z,929.4
2019-01-30T00:04:39.711Z,929.41
2019-01-30T00:04:52.663Z,929.42
2019-01-30T00:05:05.648Z,929.41
2019-01-30T00:05:18.618Z,929.41
2019-01-30T00:05:31.605Z,929.41
2019-01-30T00:05:44.621Z,929.44
2019-01-30T00:05:57.634Z,929.41
2019-01-30T00:06:10.716Z,929.42
2019-01-30T00:06:23.667Z,929.41
2019-01-30T00:06:36.604Z,929.46
2019-01-30T00:06:49.604Z,929.42
2019-01-30T00:07:02.547Z,929.43
2019-01-30T00:07:15.507Z,929.4
2019-01-30T00:07:28.498Z,929.42
2019-01-30T00:07:41.582Z,929.42
2019-01-30T00:07:54.583Z,929.4
2019-01-30T00:08:07.562Z,929.42
2019-01-30T00:08:20.586Z,929.43
2019-01-30T00:08:33.653Z,929.41
2019-01-30T00:08:46.626Z,929.45
2019-01-30T00:08:59.617Z,929.42
2019-01-30T00:09:12.607Z,929.38
2019-01-30T00:09:25.624Z,929.44
2019-01-30T00:09:38.614Z,929.41
2019-01-30T00:09:51.589Z,929.43
2019-01-30T00:10:04.532Z,929.43
2019-01-30T00:10:17.445Z,929.44
2019-01-30T00:10:30.460Z,929.45
2019-01-30T00:10:42.978Z,929.42
2019-01-30T00:10:55.905Z,929.42
2019-01-30T00:11:08.885Z,929.43
2019-01-30T00:11:21.822Z,929.46
2019-01-30T00:11:34.811Z,929.43
2019-01-30T00:11:47.793Z,929.42
2019-01-30T00:12:00.807Z,929.42
2019-01-30T00:12:13.983Z,929.43
2019-01-30T00:12:26.657Z,929.43
2019-01-30T00:12:39.594Z,929.44
2019-01-30T00:12:52.667Z,929.4
2019-01-30T00:13:05.694Z,929.43
2019-01-30T00:13:18.668Z,929.44
2019-01-30T00:13:31.659Z,929.4
2019-01-30T00:13:44.692Z,929.4
2019-01-30T00:13:57.782Z,929.42
2019-01-30T00:14:10.757Z,929.41
2019-01-30T00:14:23.778Z,929.37
2019-01-30T00:14:36.765Z,929.39
2019-01-30T00:14:49.742Z,929.38
2019-01-30T00:15:02.696Z,929.38
2019-01-30T00:15:15.604Z,929.41
2019-01-30T00:15:28.634Z,929.39
2019-01-30T00:15:41.571Z,929.39
2019-01-30T00:16:03.165Z,929.4
2019-01-30T00:16:16.094Z,929.41
2019-01-30T00:16:29.028Z,929.39
2019-01-30T00:16:41.963Z,929.36
2019-01-30T00:16:54.936Z,929.39
2019-01-30T00:17:07.851Z,929.4
2019-01-30T00:17:20.771Z,929.42
2019-01-30T00:17:33.244Z,929.4
2019-01-30T00:17:46.143Z,929.37
2019-01-30T00:17:59.018Z,929.4
2019-01-30T00:18:11.544Z,929.4
2019-01-30T00:18:24.576Z,929.41
2019-01-30T00:18:37.523Z,929.43
2019-01-30T00:18:50.424Z,929.44
2019-01-30T00:19:03.353Z,929.44
2019-01-30T00:19:16.261Z,929.45
2019-01-30T00:19:29.210Z,929.43
2019-01-30T00:19:42.828Z,929.46
2019-01-30T00:19:55.766Z,929.43
2019-01-30T00:20:08.715Z,929.46
2019-01-30T00:20:21.667Z,929.46
2019-01-30T00:20:34.562Z,929.46
2019-01-30T00:20:47.451Z,929.48
2019-01-30T00:21:00.396Z,929.46
2019-01-30T00:21:13.315Z,929.48
2019-01-30T00:21:26.238Z,929.48
2019-01-30T00:21:39.183Z,929.5
2019-01-30T00:21:52.246Z,929.51
2019-01-30T00:22:05.199Z,929.51
2019-01-30T00:22:18.144Z,929.5
2019-01-30T00:22:31.071Z,929.5
2019-01-30T00:22:44.018Z,929.48
2019-01-30T00:22:56.971Z,929.48
2019-01-30T00:23:09.884Z,929.48
2019-01-30T00:23:22.812Z,929.45
2019-01-30T00:23:35.765Z,929.48
2019-01-30T00:23:48.692Z,929.49
2019-01-30T00:24:01.654Z,929.49
2019-01-30T00:24:14.528Z,929.48
2019-01-30T00:24:27.422Z,929.49
2019-01-30T00:24:40.385Z,929.49
2019-01-30T00:24:53.358Z,929.47
2019-01-30T00:25:06.250Z,929.45
2019-01-30T00:25:19.198Z,929.49
2019-01-30T00:25:34.024Z,929.48
2019-01-30T00:25:47.004Z,929.49
2019-01-30T00:25:59.971Z,929.5
2019-01-30T00:26:12.930Z,929.51
2019-01-30T00:26:25.852Z,929.53
2019-01-30T00:26:38.794Z,929.5
2019-01-30T00:26:51.289Z,929.51
2019-01-30T00:27:04.248Z,929.49
2019-01-30T00:27:17.207Z,929.5
2019-01-30T00:27:30.113Z,929.52
2019-01-30T00:27:43.045Z,929.52
2019-01-30T00:27:55.993Z,929.54
2019-01-30T00:28:08.964Z,929.53
2019-01-30T00:28:21.836Z,929.52
2019-01-30T00:28:34.777Z,929.54
2019-01-30T00:28:47.698Z,929.54
2019-01-30T00:29:00.665Z,929.49
2019-01-30T00:29:13.579Z,929.57
2019-01-30T00:29:26.518Z,929.54
2019-01-30T00:29:39.620Z,929.53
2019-01-30T00:29:52.538Z,929.53
2019-01-30T00:30:14.102Z,929.55
2019-01-30T00:30:26.995Z,929.54
2019-01-30T00:30:39.478Z,929.54
2019-01-30T00:30:52.445Z,929.57
2019-01-30T00:31:05.437Z,929.54
2019-01-30T00:31:18.331Z,929.59
2019-01-30T00:31:31.290Z,929.57
2019-01-30T00:31:44.288Z,929.6
2019-01-30T00:31:57.242Z,929.59
2019-01-30T00:32:10.222Z,929.61
2019-01-30T00:32:25.231Z,929.6
2019-01-30T00:32:38.294Z,929.63
2019-01-30T00:32:51.277Z,929.63
2019-01-30T00:33:04.242Z,929.63
2019-01-30T00:33:17.266Z,929.64
2019-01-30T00:33:30.260Z,929.61
2019-01-30T00:33:43.203Z,929.65
2019-01-30T00:33:56.222Z,929.62
2019-01-30T00:34:09.237Z,929.61
2019-01-30T00:34:22.211Z,929.65
2019-01-30T00:34:35.188Z,929.62
2019-01-30T00:34:48.874Z,929.63
2019-01-30T00:35:01.868Z,929.62
2019-01-30T00:35:14.863Z,929.62
2019-01-30T00:35:27.873Z,929.63
2019-01-30T00:35:40.798Z,929.65
2019-01-30T00:35:53.815Z,929.64
2019-01-30T00:36:06.764Z,929.65
2019-01-30T00:36:19.831Z,929.61
2019-01-30T00:36:32.872Z,929.64
2019-01-30T00:36:45.875Z,929.65
2019-01-30T00:36:58.816Z,929.61
2019-01-30T00:37:11.908Z,929.62
2019-01-30T00:37:24.923Z,929.62
2019-01-30T00:37:37.866Z,929.58
2019-01-30T00:37:50.854Z,929.59
2019-01-30T00:38:05.609Z,929.62
2019-01-30T00:38:18.580Z,929.64
2019-01-30T00:38:31.594Z,929.64
2019-01-30T00:38:44.575Z,929.63
2019-01-30T00:38:57.590Z,929.62
2019-01-30T00:39:10.616Z,929.61
2019-01-30T00:39:23.601Z,929.63
2019-01-30T00:39:36.551Z,929.61
2019-01-30T00:39:49.569Z,929.61
2019-01-30T00:40:02.556Z,929.61
2019-01-30T00:40:15.530Z,929.59
2019-01-30T00:40:28.497Z,929.62
2019-01-30T00:40:41.569Z,929.6
2019-01-30T00:40:54.539Z,929.61
2019-01-30T00:41:07.599Z,929.62
2019-01-30T00:41:20.570Z,929.62
2019-01-30T00:41:33.625Z,929.57
2019-01-30T00:41:46.589Z,929.64
2019-01-30T00:41:59.693Z,929.62
2019-01-30T00:42:12.674Z,929.58
2019-01-30T00:42:25.623Z,929.62
2019-01-30T00:42:38.572Z,929.58
2019-01-30T00:42:51.542Z,929.6
2019-01-30T00:43:04.569Z,929.61
2019-01-30T00:43:17.511Z,929.58
2019-01-30T00:43:30.467Z,929.61
2019-01-30T00:43:43.372Z,929.62
2019-01-30T00:43:56.286Z,929.65
2019-01-30T00:44:09.295Z,929.64
2019-01-30T00:44:22.285Z,929.59
2019-01-30T00:44:35.285Z,929.63
2019-01-30T00:44:48.326Z,929.62
2019-01-30T00:45:01.280Z,929.59
2019-01-30T00:45:14.354Z,929.61
2019-01-30T00:45:27.384Z,929.57
2019-01-30T00:45:40.411Z,929.62
2019-01-30T00:45:53.515Z,929.62
2019-01-30T00:46:06.505Z,929.66
2019-01-30T00:46:19.481Z,929.58
2019-01-30T00:46:32.482Z,929.65
2019-01-30T00:46:45.514Z,929.62
2019-01-30T00:46:58.522Z,929.6
2019-01-30T00:47:19.968Z,929.64
2019-01-30T00:47:34.912Z,929.63
2019-01-30T00:47:48.057Z,929.64
2019-01-30T00:48:01.035Z,929.6
2019-01-30T00:48:14.038Z,929.64
2019-01-30T00:48:27.036Z,929.61
2019-01-30T00:48:39.943Z,929.62
2019-01-30T00:48:52.928Z,929.61
2019-01-30T00:49:05.891Z,929.64
2019-01-30T00:49:18.895Z,929.63
2019-01-30T00:49:31.894Z,929.64
2019-01-30T00:49:45.089Z,929.6
2019-01-30T00:49:58.116Z,929.63
2019-01-30T00:50:11.174Z,929.64
2019-01-30T00:50:24.136Z,929.65
2019-01-30T00:50:37.068Z,929.64
2019-01-30T00:50:50.054Z,929.63
2019-01-30T00:51:03.054Z,929.65
2019-01-30T00:51:15.597Z,929.66
2019-01-30T00:51:28.658Z,929.66
2019-01-30T00:51:41.175Z,929.64
2019-01-30T00:51:54.170Z,929.65
2019-01-30T00:52:07.175Z,929.66
2019-01-30T00:52:20.177Z,929.66
2019-01-30T00:52:33.121Z,929.67
2019-01-30T00:52:46.144Z,929.63
2019-01-30T00:52:59.144Z,929.66
2019-01-30T00:53:12.142Z,929.66
2019-01-30T00:53:25.122Z,929.66
2019-01-30T00:53:38.049Z,929.65
2019-01-30T00:53:51.113Z,929.65
2019-01-30T00:54:04.160Z,929.67
2019-01-30T00:54:17.058Z,929.66
2019-01-30T00:54:39.164Z,929.66
2019-01-30T00:54:52.148Z,929.68
2019-01-30T00:55:05.069Z,929.7
2019-01-30T00:55:18.010Z,929.68
2019-01-30T00:55:31.012Z,929.69
2019-01-30T00:55:43.550Z,929.69
2019-01-30T00:55:56.539Z,929.69
2019-01-30T00:56:09.605Z,929.68
2019-01-30T00:56:22.581Z,929.67
2019-01-30T00:56:35.567Z,929.7
2019-01-30T00:56:48.533Z,929.67
2019-01-30T00:57:01.653Z,929.71
2019-01-30T00:57:14.632Z,929.7
2019-01-30T00:57:27.226Z,929.68
2019-01-30T00:57:40.201Z,929.63
2019-01-30T00:57:53.181Z,929.65
2019-01-30T00:58:05.705Z,929.68
2019-01-30T00:58:18.736Z,929.67
2019-01-30T00:58:31.655Z,929.69
2019-01-30T00:58:44.619Z,929.67
2019-01-30T00:58:57.587Z,929.65
2019-01-30T00:59:10.592Z,929.66
2019-01-30T00:59:23.596Z,929.67
2019-01-30T00:59:36.612Z,929.68
2019-01-30T00:59:49.722Z,929.69
2019-01-30T01:00:02.696Z,929.68
2019-01-30T01:00:24.521Z,929.69
2019-01-30T01:00:37.420Z,929.69
2019-01-30T01:00:50.407Z,929.72
2019-01-30T01:01:03.407Z,929.7
2019-01-30T01:01:16.401Z,929.68
2019-01-30T01:01:29.525Z,929.71
2019-01-30T01:01:42.531Z,929.71
2019-01-30T01:01:55.506Z,929.72
2019-01-30T01:02:08.455Z,929.73
2019-01-30T01:02:21.445Z,929.69
2019-01-30T01:02:34.382Z,929.71
2019-01-30T01:02:47.346Z,929.72
2019-01-30T01:03:00.341Z,929.73
2019-01-30T01:03:13.359Z,929.69
2019-01-30T01:03:26.381Z,929.71
2019-01-30T01:03:39.400Z,929.73
2019-01-30T01:03:52.365Z,929.74
2019-01-30T01:04:05.332Z,929.74
2019-01-30T01:04:18.313Z,929.71
2019-01-30T01:04:31.238Z,929.73
2019-01-30T01:04:44.220Z,929.71
2019-01-30T01:04:57.907Z,929.73
2019-01-30T01:05:10.431Z,929.75
2019-01-30T01:05:23.454Z,929.75
2019-01-30T01:05:36.415Z,929.74
2019-01-30T01:05:49.369Z,929.75
2019-01-30T01:06:02.371Z,929.75
2019-01-30T01:06:15.450Z,929.76
2019-01-30T01:06:28.460Z,929.75
2019-01-30T01:06:41.528Z,929.75
2019-01-30T01:06:54.492Z,929.74
2019-01-30T01:07:07.476Z,929.78
2019-01-30T01:07:20.510Z,929.75
2019-01-30T01:07:33.540Z,929.77
2019-01-30T01:07:46.507Z,929.76
2019-01-30T01:07:59.535Z,929.75
2019-01-30T01:08:12.523Z,929.74
2019-01-30T01:08:25.510Z,929.76
2019-01-30T01:08:38.476Z,929.76
2019-01-30T01:08:51.436Z,929.74
2019-01-30T01:09:04.421Z,929.74
2019-01-30T01:09:17.406Z,929.76
2019-01-30T01:09:30.332Z,929.75
2019-01-30T01:09:43.289Z,929.73
2019-01-30T01:09:56.263Z,929.79
2019-01-30T01:10:09.245Z,929.79
2019-01-30T01:10:22.176Z,929.77
2019-01-30T01:10:35.318Z,929.79
2019-01-30T01:10:48.291Z,929.76
2019-01-30T01:11:01.270Z,929.74
2019-01-30T01:11:14.269Z,929.77
2019-01-30T01:11:27.316Z,929.74
2019-01-30T01:11:40.438Z,929.76
2019-01-30T01:11:53.472Z,929.78
2019-01-30T01:12:06.420Z,929.76
2019-01-30T01:12:19.490Z,929.77
2019-01-30T01:12:32.147Z,929.76
2019-01-30T01:12:45.508Z,929.81
2019-01-30T01:12:58.808Z,929.77
2019-01-30T01:13:11.888Z,929.82
2019-01-30T01:13:25.094Z,929.81
2019-01-30T01:13:38.160Z,929.81
2019-01-30T01:13:51.437Z,929.85
2019-01-30T01:14:04.095Z,929.81
2019-01-30T01:14:16.716Z,929.83
2019-01-30T01:14:30.118Z,929.83
2019-01-30T01:14:43.257Z,929.84
2019-01-30T01:14:56.423Z,929.83
2019-01-30T01:15:09.483Z,929.85
2019-01-30T01:15:22.655Z,929.83
2019-01-30T01:15:36.942Z,929.86
2019-01-30T01:15:50.102Z,929.86
2019-01-30T01:16:03.468Z,929.85
2019-01-30T01:16:16.561Z,929.85
2019-01-30T01:16:29.679Z,929.85
2019-01-30T01:16:42.990Z,929.87
2019-01-30T01:16:56.227Z,929.87
2019-01-30T01:17:09.458Z,929.84
2019-01-30T01:17:22.605Z,929.88
2019-01-30T01:17:35.739Z,929.85
2019-01-30T01:17:48.952Z,929.85
2019-01-30T01:18:02.101Z,929.84
2019-01-30T01:18:15.418Z,929.83
2019-01-30T01:18:28.707Z,929.83
2019-01-30T01:18:41.836Z,929.85
2019-01-30T01:18:54.979Z,929.84
2019-01-30T01:19:08.140Z,929.84
2019-01-30T01:19:21.241Z,929.85
2019-01-30T01:19:34.246Z,929.84
2019-01-30T01:19:47.351Z,929.89
2019-01-30T01:20:00.384Z,929.89
2019-01-30T01:20:13.441Z,929.89
2019-01-30T01:20:26.586Z,929.83
2019-01-30T01:20:39.802Z,929.86
2019-01-30T01:20:52.873Z,929.86
2019-01-30T01:21:05.866Z,929.89
2019-01-30T01:21:18.895Z,929.86
2019-01-30T01:21:31.991Z,929.87
2019-01-30T01:21:45.102Z,929.87
2019-01-30T01:21:58.129Z,929.86
2019-01-30T01:22:11.194Z,929.84
2019-01-30T01:22:24.174Z,929.85
2019-01-30T01:22:37.184Z,929.85
2019-01-30T01:22:49.905Z,929.87
2019-01-30T01:23:02.893Z,929.87
2019-01-30T01:23:15.913Z,929.87
2019-01-30T01:23:28.963Z,929.88
2019-01-30T01:23:41.937Z,929.86
2019-01-30T01:23:54.964Z,929.86
2019-01-30T01:24:07.981Z,929.83
2019-01-30T01:24:21.106Z,929.86
2019-01-30T01:24:34.206Z,929.86
2019-01-30T01:24:47.144Z,929.88
2019-01-30T01:25:00.309Z,929.88
2019-01-30T01:25:13.299Z,929.89
2019-01-30T01:25:26.312Z,929.87
2019-01-30T01:25:39.269Z,929.88
2019-01-30T01:25:52.224Z,929.88
2019-01-30T01:26:05.194Z,929.92
2019-01-30T01:26:18.212Z,929.9
2019-01-30T01:26:31.220Z,929.91
2019-01-30T01:26:44.237Z,929.88
2019-01-30T01:26:57.214Z,929.88
2019-01-30T01:27:10.301Z,929.9
2019-01-30T01:27:23.244Z,929.95
2019-01-30T01:27:36.269Z,929.92
2019-01-30T01:27:49.402Z,929.93
2019-01-30T01:28:02.357Z,929.88
2019-01-30T01:28:15.401Z,929.9
2019-01-30T01:28:28.411Z,929.94
2019-01-30T01:28:41.396Z,929.9
2019-01-30T01:28:54.340Z,929.92
2019-01-30T01:29:07.318Z,929.9
2019-01-30T01:29:20.244Z,929.9
2019-01-30T01:29:33.237Z,929.9
2019-01-30T01:29:46.219Z,929.9
2019-01-30T01:29:59.396Z,929.91
2019-01-30T01:30:12.540Z,929.9
2019-01-30T01:30:34.782Z,929.9
2019-01-30T01:30:47.398Z,929.91
2019-01-30T01:31:00.424Z,929.91
2019-01-30T01:31:13.515Z,929.89
2019-01-30T01:31:26.508Z,929.89
2019-01-30T01:31:39.512Z,929.9
2019-01-30T01:31:52.478Z,929.89
2019-01-30T01:32:05.539Z,929.89
2019-01-30T01:32:18.502Z,929.89
2019-01-30T01:32:31.472Z,929.88
2019-01-30T01:32:46.678Z,929.89
2019-01-30T01:32:59.833Z,929.89
2019-01-30T01:33:12.907Z,929.91
2019-01-30T01:33:25.875Z,929.89
2019-01-30T01:33:38.836Z,929.91
2019-01-30T01:33:51.844Z,929.93
2019-01-30T01:34:04.947Z,929.89
2019-01-30T01:34:17.970Z,929.87
2019-01-30T01:34:30.920Z,929.93
2019-01-30T01:34:44.020Z,929.9
2019-01-30T01:34:57.018Z,929.88
2019-01-30T01:35:10.833Z,929.9
2019-01-30T01:35:23.824Z,929.88
2019-01-30T01:35:36.768Z,929.9
2019-01-30T01:35:49.730Z,929.91
2019-01-30T01:36:02.710Z,929.89
2019-01-30T01:36:15.701Z,929.88
2019-01-30T01:36:28.206Z,929.9
2019-01-30T01:36:41.222Z,929.9
2019-01-30T01:36:53.803Z,929.89
2019-01-30T01:37:06.866Z,929.93
2019-01-30T01:37:19.816Z,929.94
2019-01-30T01:37:32.817Z,929.93
2019-01-30T01:37:45.752Z,929.89
2019-01-30T01:37:58.843Z,929.96
2019-01-30T01:38:11.794Z,929.93
2019-01-30T01:38:24.774Z,929.92
2019-01-30T01:38:37.691Z,929.99
2019-01-30T01:38:50.770Z,929.97
2019-01-30T01:39:03.750Z,929.96
2019-01-30T01:39:16.755Z,929.97
2019-01-30T01:39:29.769Z,929.96
2019-01-30T01:39:42.780Z,929.99
2019-01-30T01:39:58.131Z,929.98
2019-01-30T01:40:11.138Z,929.98
2019-01-30T01:40:24.090Z,929.98
2019-01-30T01:40:37.079Z,930.01
2019-01-30T01:40:50.119Z,930.01
2019-01-30T01:41:03.162Z,930.01
2019-01-30T01:41:16.111Z,930.01
2019-01-30T01:41:29.122Z,930.01
2019-01-30T01:41:42.067Z,929.99
2019-01-30T01:41:55.123Z,930.03
2019-01-30T01:42:08.163Z,930.03
2019-01-30T01:42:21.101Z,930
2019-01-30T01:42:34.068Z,930.02
2019-01-30T01:42:47.056Z,930.06
2019-01-30T01:43:00.026Z,930.07
2019-01-30T01:43:13.005Z,930.04
2019-01-30T01:43:25.968Z,930.06
2019-01-30T01:43:38.503Z,930.1
2019-01-30T01:43:51.039Z,930.08
2019-01-30T01:44:04.089Z,930.05
2019-01-30T01:44:17.096Z,930.05
2019-01-30T01:44:30.100Z,930.06
2019-01-30T01:44:43.047Z,930.08
2019-01-30T01:44:56.032Z,930.04
2019-01-30T01:45:08.932Z,930.06
2019-01-30T01:45:21.911Z,930.06
2019-01-30T01:45:34.910Z,930.03
2019-01-30T01:45:48.031Z,930.06
2019-01-30T01:46:01.038Z,930.07
2019-01-30T01:46:14.018Z,930.06
2019-01-30T01:46:26.616Z,930.05
2019-01-30T01:46:39.597Z,930.07
2019-01-30T01:46:52.620Z,930.07
2019-01-30T01:47:05.589Z,930.04
2019-01-30T01:47:18.626Z,930.06
2019-01-30T01:47:31.596Z,930.07
2019-01-30T01:47:44.607Z,930.08
2019-01-30T01:47:57.541Z,930.06
2019-01-30T01:48:10.469Z,930.06
2019-01-30T01:48:23.406Z,930.03
2019-01-30T01:48:36.435Z,930.05
2019-01-30T01:48:49.455Z,930.04
2019-01-30T01:49:02.463Z,930.06
2019-01-30T01:49:15.526Z,930.03
2019-01-30T01:49:28.512Z,930.04
2019-01-30T01:49:41.597Z,930.07
2019-01-30T01:49:54.556Z,930.08
2019-01-30T01:50:08.067Z,930.04
2019-01-30T01:50:20.655Z,930.07
2019-01-30T01:50:33.586Z,930.03
2019-01-30T01:50:46.553Z,930.04
2019-01-30T01:50:59.497Z,930.01
2019-01-30T01:51:12.504Z,930.02
2019-01-30T01:51:25.538Z,930.03
2019-01-30T01:51:38.568Z,930.05
2019-01-30T01:51:51.530Z,930.02
2019-01-30T01:52:04.475Z,930.07
2019-01-30T01:52:17.447Z,930
2019-01-30T01:52:30.534Z,930.02
2019-01-30T01:52:42.594Z,929.99
2019-01-30T01:52:55.578Z,930
2019-01-30T01:53:08.246Z,930.03
2019-01-30T01:53:21.250Z,930.03
2019-01-30T01:53:34.219Z,929.99
2019-01-30T01:53:47.210Z,929.96
2019-01-30T01:54:00.230Z,929.98
2019-01-30T01:54:13.283Z,929.98
2019-01-30T01:54:26.248Z,929.99
2019-01-30T01:54:39.282Z,929.97
2019-01-30T01:54:52.263Z,929.95
2019-01-30T01:55:05.290Z,929.97
2019-01-30T01:55:18.266Z,929.94
2019-01-30T01:55:31.216Z,929.96
2019-01-30T01:55:44.155Z,929.94
2019-01-30T01:55:57.173Z,929.97
2019-01-30T01:56:10.178Z,929.94
2019-01-30T01:56:23.154Z,929.95
2019-01-30T01:56:36.129Z,929.99
2019-01-30T01:56:49.131Z,929.95
2019-01-30T01:57:02.096Z,929.96
2019-01-30T01:57:15.057Z,929.95
2019-01-30T01:57:28.035Z,929.95
2019-01-30T01:57:40.985Z,929.96
2019-01-30T01:57:53.941Z,929.91
2019-01-30T01:58:06.881Z,929.93
2019-01-30T01:58:19.400Z,929.94
2019-01-30T01:58:32.417Z,929.94
2019-01-30T01:58:45.470Z,929.94
2019-01-30T01:58:58.508Z,929.94
2019-01-30T01:59:11.496Z,929.97
2019-01-30T01:59:24.483Z,929.94
2019-01-30T01:59:37.459Z,929.93
2019-01-30T01:59:50.453Z,929.96
2019-01-30T02:00:03.386Z,929.97
2019-01-30T02:00:16.591Z,929.96
2019-01-30T02:00:39.259Z,929.97
2019-01-30T02:00:52.246Z,929.99
2019-01-30T02:01:05.239Z,929.97
2019-01-30T02:01:18.185Z,929.99
2019-01-30T02:01:31.104Z,929.99
2019-01-30T02:01:44.056Z,929.97
2019-01-30T02:01:57.118Z,929.95
2019-01-30T02:02:09.715Z,929.95
2019-01-30T02:02:22.759Z,929.93
2019-01-30T02:02:35.756Z,929.95
2019-01-30T02:02:48.753Z,929.94
2019-01-30T02:03:01.732Z,929.92
2019-01-30T02:03:14.773Z,929.92
2019-01-30T02:03:27.775Z,929.97
2019-01-30T02:03:40.778Z,929.93
2019-01-30T02:03:53.753Z,929.97
2019-01-30T02:04:06.727Z,929.96
2019-01-30T02:04:19.708Z,929.93
2019-01-30T02:04:32.716Z,929.94
2019-01-30T02:04:45.784Z,929.95
2019-01-30T02:04:58.933Z,929.92
2019-01-30T02:05:12.731Z,929.91
2019-01-30T02:05:25.853Z,929.92
2019-01-30T02:05:38.967Z,929.93
2019-01-30T02:05:51.913Z,929.95
2019-01-30T02:06:05.048Z,929.96
2019-01-30T02:06:17.777Z,929.93
2019-01-30T02:06:30.844Z,929.94
2019-01-30T02:06:43.933Z,929.92
2019-01-30T02:06:56.974Z,929.9
2019-01-30T02:07:09.971Z,929.93
2019-01-30T02:07:23.016Z,929.94
2019-01-30T02:07:35.980Z,929.94
2019-01-30T02:07:48.963Z,929.94
2019-01-30T02:08:01.980Z,929.95
2019-01-30T02:08:14.968Z,929.92
2019-01-30T02:08:28.002Z,929.91
2019-01-30T02:08:40.983Z,929.91
2019-01-30T02:08:53.949Z,929.94
2019-01-30T02:09:07.182Z,929.93
2019-01-30T02:09:20.145Z,929.94
2019-01-30T02:09:33.190Z,929.94
2019-01-30T02:09:46.212Z,929.94
2019-01-30T02:09:59.152Z,929.93
2019-01-30T02:10:12.167Z,929.95
2019-01-30T02:10:25.182Z,929.97
2019-01-30T02:10:39.817Z,929.97
2019-01-30T02:10:52.828Z,929.98
2019-01-30T02:11:05.798Z,929.97
2019-01-30T02:11:18.920Z,929.95
2019-01-30T02:11:31.943Z,929.98
2019-01-30T02:11:44.939Z,929.99
2019-01-30T02:11:57.978Z,929.97
2019-01-30T02:12:10.991Z,929.97
2019-01-30T02:12:24.120Z,930.01
2019-01-30T02:12:37.048Z,929.98
2019-01-30T02:12:50.023Z,929.96
2019-01-30T02:13:03.053Z,929.98
2019-01-30T02:13:16.208Z,929.99
2019-01-30T02:13:29.235Z,930
2019-01-30T02:13:42.231Z,929.98
2019-01-30T02:13:55.217Z,929.99
2019-01-30T02:14:08.246Z,929.99
2019-01-30T02:14:21.180Z,929.99
2019-01-30T02:14:34.189Z,930
2019-01-30T02:14:47.139Z,930
2019-01-30T02:15:00.167Z,929.95
2019-01-30T02:15:13.200Z,929.95
2019-01-30T02:15:26.247Z,929.98
2019-01-30T02:15:39.390Z,929.99
2019-01-30T02:15:52.321Z,929.95
2019-01-30T02:16:05.287Z,929.97
2019-01-30T02:16:18.298Z,929.98
2019-01-30T02:16:31.299Z,930
2019-01-30T02:16:44.263Z,930.01
2019-01-30T02:16:57.291Z,930
2019-01-30T02:17:10.277Z,929.97
2019-01-30T02:17:23.317Z,929.99
2019-01-30T02:17:36.473Z,929.99
2019-01-30T02:17:48.978Z,929.97
2019-01-30T02:18:02.010Z,929.99
2019-01-30T02:18:15.728Z,929.98
2019-01-30T02:18:28.719Z,929.96
2019-01-30T02:18:41.713Z,929.99
2019-01-30T02:18:54.830Z,929.99
2019-01-30T02:19:07.804Z,929.96
2019-01-30T02:19:20.819Z,929.99
2019-01-30T02:19:33.788Z,930.03
2019-01-30T02:19:46.811Z,930.04
2019-01-30T02:19:59.837Z,930.01
2019-01-30T02:20:12.856Z,930.01
2019-01-30T02:20:26.114Z,929.99
2019-01-30T02:20:39.196Z,930.01
2019-01-30T02:20:52.234Z,930.04
2019-01-30T02:21:05.163Z,930
2019-01-30T02:21:18.122Z,930
2019-01-30T02:21:31.076Z,930.02
2019-01-30T02:21:44.061Z,930
2019-01-30T02:21:57.012Z,930.03
2019-01-30T02:22:09.951Z,930.01
2019-01-30T02:22:23.058Z,929.99
2019-01-30T02:22:36.024Z,930
2019-01-30T02:22:49.002Z,930.01
2019-01-30T02:23:02.058Z,930.03
2019-01-30T02:23:14.592Z,929.99
2019-01-30T02:23:27.602Z,929.99
2019-01-30T02:23:40.577Z,930.01
2019-01-30T02:23:53.526Z,930.05
2019-01-30T02:24:06.550Z,930.02
2019-01-30T02:24:19.552Z,930.05
2019-01-30T02:24:32.527Z,930.03
2019-01-30T02:24:45.475Z,930
2019-01-30T02:24:58.444Z,930.02
2019-01-30T02:25:11.508Z,930.03
2019-01-30T02:25:24.435Z,930.01
2019-01-30T02:25:37.388Z,930.03
2019-01-30T02:25:50.356Z,929.98
2019-01-30T02:26:03.335Z,930.02
2019-01-30T02:26:16.294Z,930.02
2019-01-30T02:26:29.255Z,929.98
2019-01-30T02:26:42.186Z,929.99
2019-01-30T02:26:55.184Z,929.99
2019-01-30T02:27:08.157Z,929.98
2019-01-30T02:27:21.117Z,929.99
2019-01-30T02:27:35.280Z,930.01
2019-01-30T02:27:48.255Z,929.97
2019-01-30T02:28:01.302Z,929.97
2019-01-30T02:28:14.288Z,929.99
2019-01-30T02:28:27.284Z,929.96
2019-01-30T02:28:40.309Z,929.96
2019-01-30T02:28:53.320Z,929.98
2019-01-30T02:29:06.327Z,929.96
2019-01-30T02:29:19.323Z,929.95
2019-01-30T02:29:32.335Z,929.96
2019-01-30T02:29:45.323Z,929.94
2019-01-30T02:29:58.255Z,929.94
2019-01-30T02:30:11.277Z,929.93
2019-01-30T02:30:24.348Z,929.96
2019-01-30T02:30:48.270Z,929.95
2019-01-30T02:31:01.233Z,929.96
2019-01-30T02:31:14.184Z,929.95
2019-01-30T02:31:27.272Z,929.97
2019-01-30T02:31:40.267Z,929.93
2019-01-30T02:31:53.273Z,929.92
2019-01-30T02:32:06.292Z,929.95
2019-01-30T02:32:19.239Z,929.95
2019-01-30T02:32:32.433Z,929.94
2019-01-30T02:32:45.526Z,929.95
2019-01-30T02:32:58.532Z,929.95
2019-01-30T02:33:11.554Z,929.91
2019-01-30T02:33:24.498Z,929.94
2019-01-30T02:33:37.586Z,929.9
2019-01-30T02:33:50.210Z,929.92
2019-01-30T02:34:03.405Z,929.88
2019-01-30T02:34:16.709Z,929.92
2019-01-30T02:34:29.742Z,929.92
2019-01-30T02:34:42.797Z,929.93
2019-01-30T02:34:55.799Z,929.9
2019-01-30T02:35:08.859Z,929.91
2019-01-30T02:35:23.060Z,929.88
2019-01-30T02:35:36.049Z,929.95
2019-01-30T02:35:49.023Z,929.94
2019-01-30T02:36:01.611Z,929.93
2019-01-30T02:36:14.679Z,929.91
2019-01-30T02:36:27.690Z,929.92
2019-01-30T02:36:40.682Z,929.93
2019-01-30T02:36:53.683Z,929.92
2019-01-30T02:37:06.597Z,929.89
2019-01-30T02:37:19.524Z,929.93
2019-01-30T02:37:32.497Z,929.91
2019-01-30T02:37:45.465Z,929.92
2019-01-30T02:37:58.410Z,929.89
2019-01-30T02:38:11.462Z,929.92
2019-01-30T02:38:24.444Z,929.9
2019-01-30T02:38:37.479Z,929.89
2019-01-30T02:38:50.363Z,929.94
2019-01-30T02:39:03.325Z,929.89
2019-01-30T02:39:16.334Z,929.91
2019-01-30T02:39:29.358Z,929.9
2019-01-30T02:39:42.347Z,929.94
2019-01-30T02:39:55.408Z,929.93
2019-01-30T02:40:08.472Z,929.89
2019-01-30T02:40:21.477Z,929.91
2019-01-30T02:40:34.543Z,929.92
2019-01-30T02:40:47.543Z,929.93
2019-01-30T02:41:00.505Z,929.91
2019-01-30T02:41:13.436Z,929.92
2019-01-30T02:41:26.384Z,929.92
2019-01-30T02:41:39.403Z,929.92
2019-01-30T02:41:52.356Z,929.9
2019-01-30T02:42:05.377Z,929.88
2019-01-30T02:42:18.434Z,929.89
2019-01-30T02:42:31.432Z,929.93
2019-01-30T02:42:44.440Z,929.9
2019-01-30T02:42:57.393Z,929.9
2019-01-30T02:43:10.477Z,929.88
2019-01-30T02:43:23.489Z,929.87
2019-01-30T02:43:36.243Z,929.87
2019-01-30T02:43:48.794Z,929.87
2019-01-30T02:44:01.368Z,929.87
2019-01-30T02:44:14.360Z,929.92